Time;durP1;ratioP1;P1;durP2;ratioP2;P2;SDS_P1;SDS_P2;PMS_P1;PMS_P2;Temp;Humidity;BMP_temperature;BMP_pressure;BME280_temperature;BME280_humidity;BME280_pressure;Samples;Min_cycle;Max_cycle;Signal;HPM_P1;HPM_P2
2024/04/12 00:01:01;;;;;;;180.82;16.73;;;16.90;96.70;;;;;;5554341;25;20012;-75
2024/04/12 00:03:26;;;;;;;216.80;15.35;;;16.90;96.80;;;;;;5552343;25;20070;-75
2024/04/12 00:05:54;;;;;;;82.90;9.80;;;16.90;96.90;;;;;;5533802;25;20527;-75
2024/04/12 00:08:24;;;;;;;286.50;46.38;;;16.80;96.90;;;;;;5547358;25;20444;-75
2024/04/12 00:10:51;;;;;;;122.97;8.05;;;16.80;96.90;;;;;;5554165;25;20452;-74
2024/04/12 00:13:17;;;;;;;226.25;14.43;;;16.80;97.00;;;;;;5554362;25;20008;-74
2024/04/12 00:15:43;;;;;;;51.13;9.73;;;16.70;97.00;;;;;;5545856;25;20088;-72
2024/04/12 00:18:11;;;;;;;74.20;7.97;;;16.70;97.10;;;;;;5550815;25;19996;-72
2024/04/12 00:20:37;;;;;;;101.57;5.90;;;16.70;97.10;;;;;;5545391;25;20073;-75
2024/04/12 00:23:03;;;;;;;379.83;19.45;;;16.70;97.20;;;;;;5551328;25;20085;-74
2024/04/12 00:25:29;;;;;;;218.85;31.77;;;16.80;97.20;;;;;;5556350;25;20352;-75
2024/04/12 00:27:55;;;;;;;285.33;25.30;;;16.80;97.20;;;;;;5533383;25;20000;-75
2024/04/12 00:30:41;;;;;;;305.15;23.02;;;16.70;97.30;;;;;;5556360;25;20037;-75
2024/04/12 00:33:10;;;;;;;94.13;7.20;;;16.70;97.30;;;;;;5532100;25;20412;-74
2024/04/12 00:35:40;;;;;;;184.68;30.88;;;16.70;97.40;;;;;;5545278;25;20004;-75
2024/04/12 00:38:09;;;;;;;97.45;8.00;;;16.70;97.40;;;;;;5538655;25;20000;-75
2024/04/12 00:40:46;;;;;;;264.67;21.00;;;16.70;97.40;;;;;;5541148;25;20019;-75
2024/04/12 00:43:17;;;;;;;190.18;25.35;;;16.70;97.40;;;;;;5547960;25;19996;-75
2024/04/12 00:45:45;;;;;;;142.80;15.80;;;16.80;97.40;;;;;;5537932;25;20005;-75
2024/04/12 00:48:14;;;;;;;414.88;50.95;;;16.70;97.40;;;;;;5541320;25;20450;-75
2024/04/12 00:50:42;;;;;;;140.65;14.25;;;16.80;97.40;;;;;;5545297;25;20001;-75
2024/04/12 00:53:22;;;;;;;459.25;63.58;;;16.70;97.40;;;;;;5546495;25;19996;-75
2024/04/12 00:56:00;;;;;;;137.30;12.27;;;16.70;97.50;;;;;;5533885;25;20542;-75
2024/04/12 00:58:32;;;;;;;220.50;13.02;;;16.70;97.50;;;;;;5538097;25;20001;-75
2024/04/12 01:01:10;;;;;;;80.10;9.33;;;16.70;97.50;;;;;;5544595;25;20005;-75
2024/04/12 01:03:45;;;;;;;103.35;13.15;;;16.70;97.50;;;;;;5541654;25;20073;-74
2024/04/12 01:06:24;;;;;;;100.45;11.68;;;16.70;97.60;;;;;;5535749;25;20073;-75
2024/04/12 01:08:51;;;;;;;140.57;13.55;;;16.70;97.70;;;;;;5530484;25;20102;-74
2024/04/12 01:11:22;;;;;;;153.65;14.98;;;16.70;97.60;;;;;;5545903;25;20079;-75
2024/04/12 01:13:52;;;;;;;85.53;11.90;;;16.70;97.60;;;;;;5538762;25;20008;-76
2024/04/12 01:16:18;;;;;;;244.18;31.00;;;16.70;97.60;;;;;;5539339;25;20356;-76
2024/04/12 01:18:45;;;;;;;380.00;20.30;;;16.70;97.60;;;;;;5539632;25;20441;-76
2024/04/12 01:21:11;;;;;;;99.28;7.57;;;16.70;97.60;;;;;;5541317;25;20017;-75
2024/04/12 01:23:44;;;;;;;216.93;23.52;;;16.70;97.70;;;;;;5550543;25;20328;-74
2024/04/12 01:26:12;;;;;;;148.38;10.65;;;16.70;97.70;;;;;;5549929;25;20008;-75
2024/04/12 01:28:39;;;;;;;138.23;11.20;;;16.70;97.80;;;;;;5540998;25;20005;-74
2024/04/12 01:31:05;;;;;;;65.55;9.15;;;16.70;97.80;;;;;;5537817;25;20025;-75
2024/04/12 01:33:36;;;;;;;209.65;14.20;;;16.70;97.80;;;;;;5548788;25;19993;-74
2024/04/12 01:36:10;;;;;;;146.27;11.38;;;16.70;97.80;;;;;;5558002;25;20400;-74
2024/04/12 01:38:37;;;;;;;65.13;12.25;;;16.70;97.80;;;;;;5547803;25;20524;-74
2024/04/12 01:41:06;;;;;;;237.70;39.83;;;16.70;97.80;;;;;;5533889;25;20009;-76
2024/04/12 01:43:38;;;;;;;116.65;11.73;;;16.70;97.80;;;;;;5553904;25;20328;-74
2024/04/12 01:46:07;;;;;;;54.33;9.02;;;16.70;97.80;;;;;;5551599;25;19996;-74
2024/04/12 01:48:34;;;;;;;316.30;24.38;;;16.80;97.80;;;;;;5546894;25;19997;-74
2024/04/12 01:51:04;;;;;;;308.48;32.67;;;16.80;97.80;;;;;;5538465;25;20001;-74
2024/04/12 01:53:36;;;;;;;419.15;18.60;;;16.80;97.80;;;;;;5543372;25;20020;-75
2024/04/12 01:56:04;;;;;;;268.02;18.50;;;16.80;97.80;;;;;;5541617;25;20012;-74
2024/04/12 01:58:29;;;;;;;72.70;10.43;;;16.70;97.80;;;;;;5532953;25;20448;-74
2024/04/12 02:00:55;;;;;;;117.85;12.15;;;16.70;97.80;;;;;;5545231;25;20029;-74
2024/04/12 02:03:21;;;;;;;148.63;19.63;;;16.70;97.90;;;;;;5546154;25;20032;-74
2024/04/12 02:05:49;;;;;;;64.68;11.40;;;16.70;98.00;;;;;;5542699;25;20516;-74
2024/04/12 02:08:18;;;;;;;129.02;12.60;;;16.70;98.00;;;;;;5545092;25;20448;-74
2024/04/12 02:10:46;;;;;;;168.88;12.63;;;16.70;98.00;;;;;;5544052;25;20007;-74
2024/04/12 02:13:17;;;;;;;414.88;29.98;;;16.70;98.00;;;;;;5553641;25;20065;-74
2024/04/12 02:15:48;;;;;;;74.53;8.00;;;16.70;98.00;;;;;;5547790;25;20436;-74
2024/04/12 02:18:21;;;;;;;155.98;13.20;;;16.70;98.10;;;;;;5549689;25;20032;-75
2024/04/12 02:20:51;;;;;;;230.98;17.83;;;16.70;98.10;;;;;;5543009;25;20026;-73
2024/04/12 02:23:19;;;;;;;267.25;26.08;;;16.60;98.10;;;;;;5543100;25;20345;-73
2024/04/12 02:25:47;;;;;;;122.93;14.77;;;16.60;98.10;;;;;;5554546;25;20012;-73
2024/04/12 02:28:16;;;;;;;289.75;23.50;;;16.60;98.20;;;;;;5545235;25;20012;-73
2024/04/12 02:30:43;;;;;;;267.65;19.58;;;16.60;98.20;;;;;;5554654;25;20460;-73
2024/04/12 02:33:09;;;;;;;85.30;9.20;;;16.60;98.20;;;;;;5560169;25;20057;-73
2024/04/12 02:35:41;;;;;;;153.27;15.00;;;16.60;98.30;;;;;;5552889;25;20024;-73
2024/04/12 02:38:20;;;;;;;120.90;18.92;;;16.60;98.30;;;;;;5536969;25;20011;-73
2024/04/12 02:40:47;;;;;;;59.78;6.80;;;16.60;98.30;;;;;;5552981;25;19997;-74
2024/04/12 02:43:15;;;;;;;267.75;21.77;;;16.70;98.30;;;;;;5544195;25;19997;-73
2024/04/12 02:45:47;;;;;;;150.35;19.77;;;16.70;98.30;;;;;;5547587;25;20074;-73
2024/04/12 02:48:13;;;;;;;105.03;9.73;;;16.60;98.20;;;;;;5548857;25;20066;-73
2024/04/12 02:50:39;;;;;;;93.78;13.48;;;16.70;98.20;;;;;;5542623;25;20000;-73
2024/04/12 02:53:05;;;;;;;111.22;9.73;;;16.70;98.10;;;;;;5540413;25;20005;-73
2024/04/12 02:55:31;;;;;;;218.05;34.60;;;16.70;98.20;;;;;;5534181;25;20072;-73
2024/04/12 02:57:57;;;;;;;174.20;17.33;;;16.70;98.20;;;;;;5552589;25;20004;-73
2024/04/12 03:00:23;;;;;;;43.65;8.57;;;16.70;98.50;;;;;;5556641;25;19996;-73
2024/04/12 03:02:53;;;;;;;385.60;52.20;;;16.70;98.20;;;;;;5549475;25;19993;-73
2024/04/12 03:05:25;;;;;;;60.05;10.27;;;16.60;98.20;;;;;;5553689;25;20008;-73
2024/04/12 03:07:52;;;;;;;415.10;25.60;;;16.60;98.20;;;;;;5556520;25;19997;-73
2024/04/12 03:10:23;;;;;;;289.05;37.20;;;16.70;98.30;;;;;;5549760;25;20033;-73
2024/04/12 03:12:53;;;;;;;337.40;52.70;;;16.60;98.30;;;;;;5555742;25;20001;-73
2024/04/12 03:15:20;;;;;;;127.45;32.75;;;16.60;98.30;;;;;;5541521;25;19993;-73
2024/04/12 03:17:47;;;;;;;197.43;27.30;;;16.60;98.30;;;;;;5556259;25;20009;-73
2024/04/12 03:20:16;;;;;;;287.77;64.18;;;16.60;98.30;;;;;;5554758;25;20403;-73
2024/04/12 03:22:45;;;;;;;291.67;36.05;;;16.60;98.30;;;;;;5552873;25;20083;-73
2024/04/12 03:25:11;;;;;;;356.10;23.27;;;16.60;98.40;;;;;;5544181;25;20015;-73
2024/04/12 03:27:42;;;;;;;141.23;11.00;;;16.60;98.40;;;;;;5540992;25;20012;-73
2024/04/12 03:30:13;;;;;;;104.63;11.75;;;16.60;98.30;;;;;;5542226;25;20349;-73
2024/04/12 03:32:45;;;;;;;69.00;7.82;;;16.60;98.40;;;;;;5541259;25;20001;-73
2024/04/12 03:35:12;;;;;;;277.10;34.38;;;16.60;98.40;;;;;;5550766;25;20001;-73
2024/04/12 03:37:39;;;;;;;172.05;13.38;;;16.60;98.40;;;;;;5553315;25;20395;-73
2024/04/12 03:40:15;;;;;;;66.38;9.35;;;16.60;98.40;;;;;;5533629;25;20013;-73
2024/04/12 03:42:44;;;;;;;163.93;13.00;;;16.60;98.40;;;;;;5552317;25;20088;-74
2024/04/12 03:45:13;;;;;;;196.82;24.95;;;16.70;98.40;;;;;;5550348;25;20015;-73
2024/04/12 03:47:50;;;;;;;335.10;16.40;;;16.60;98.30;;;;;;5551748;25;20020;-73
2024/04/12 03:50:16;;;;;;;290.90;39.08;;;16.70;98.20;;;;;;5558209;25;20325;-73
2024/04/12 03:52:47;;;;;;;76.25;10.38;;;16.70;98.20;;;;;;5549790;25;19997;-73
2024/04/12 03:55:13;;;;;;;57.45;11.60;;;16.70;98.50;;;;;;5538679;25;20012;-73
2024/04/12 03:57:39;;;;;;;369.88;16.33;;;16.70;98.20;;;;;;5546063;25;20013;-73
2024/04/12 04:00:12;;;;;;;198.43;25.35;;;16.70;98.30;;;;;;5552359;25;20000;-73
2024/04/12 04:02:39;;;;;;;260.88;42.50;;;16.70;98.40;;;;;;5545689;25;19997;-74
2024/04/12 04:05:14;;;;;;;394.98;41.60;;;16.70;98.50;;;;;;5550199;25;20012;-73
2024/04/12 04:07:47;;;;;;;67.93;12.57;;;16.60;98.50;;;;;;5539361;25;19994;-73
2024/04/12 04:10:15;;;;;;;57.83;9.77;;;16.60;98.60;;;;;;5548226;25;20001;-73
2024/04/12 04:12:49;;;;;;;120.22;14.45;;;16.60;98.60;;;;;;5538199;25;20007;-73
2024/04/12 04:15:15;;;;;;;137.80;20.42;;;16.60;98.60;;;;;;5552709;25;20004;-73
2024/04/12 04:17:47;;;;;;;204.35;21.70;;;16.60;98.60;;;;;;5550168;25;20000;-74
2024/04/12 04:20:14;;;;;;;110.82;23.00;;;16.60;98.60;;;;;;5555586;25;20011;-73
2024/04/12 04:22:40;;;;;;;493.63;19.80;;;16.60;98.60;;;;;;5544027;25;20341;-73
2024/04/12 04:25:10;;;;;;;216.43;18.90;;;16.60;98.60;;;;;;5536029;25;20021;-73
2024/04/12 04:27:36;;;;;;;149.75;15.77;;;16.60;98.60;;;;;;5541318;25;20000;-73
2024/04/12 04:30:02;;;;;;;222.05;35.65;;;16.60;98.70;;;;;;5547901;25;20046;-73
2024/04/12 04:32:28;;;;;;;91.50;8.73;;;16.60;98.70;;;;;;5550276;25;20025;-73
2024/04/12 04:34:55;;;;;;;14.35;6.82;;;16.50;98.90;;;;;;5553114;25;20068;-73
2024/04/12 04:37:21;;;;;;;164.38;15.13;;;16.50;98.70;;;;;;5537822;25;20005;-76
2024/04/12 04:39:47;;;;;;;278.02;15.38;;;16.40;98.80;;;;;;5548489;25;20000;-74
2024/04/12 04:42:16;;;;;;;166.20;14.95;;;16.50;98.90;;;;;;5546532;25;21145;-74
2024/04/12 04:44:42;;;;;;;278.55;30.80;;;16.40;98.80;;;;;;5550210;25;20790;-73
2024/04/12 04:47:09;;;;;;;125.43;8.25;;;16.50;98.80;;;;;;5547134;25;19994;-73
2024/04/12 04:49:35;;;;;;;231.68;15.52;;;16.40;98.80;;;;;;5544888;25;20007;-72
2024/04/12 04:52:01;;;;;;;148.93;10.27;;;16.30;98.90;;;;;;5549311;25;19997;-73
2024/04/12 04:54:28;;;;;;;115.32;10.63;;;16.40;99.00;;;;;;5549074;25;20456;-72
2024/04/12 04:56:54;;;;;;;123.15;9.20;;;16.30;99.10;;;;;;5547550;25;20000;-74
2024/04/12 04:59:28;;;;;;;34.78;6.38;;;16.30;99.10;;;;;;5548203;25;20000;-73
2024/04/12 05:01:55;;;;;;;53.60;8.18;;;16.30;99.20;;;;;;5555277;25;20004;-73
2024/04/12 05:04:22;;;;;;;123.68;9.23;;;16.30;99.20;;;;;;5550985;25;20000;-76
2024/04/12 05:06:50;;;;;;;294.90;12.35;;;16.30;99.20;;;;;;5542218;25;20008;-73
2024/04/12 05:09:18;;;;;;;11.20;4.93;;;16.30;99.10;;;;;;5551416;25;20012;-74
2024/04/12 05:11:52;;;;;;;142.45;23.48;;;16.40;99.20;;;;;;5539004;25;19993;-73
2024/04/12 05:17:03;;;;;;;178.30;10.82;;;16.40;99.20;;;;;;5549592;25;20012;-74
2024/04/12 05:19:40;;;;;;;215.82;9.25;;;16.40;99.20;;;;;;5542706;25;19997;-74
2024/04/12 05:22:07;;;;;;;304.55;27.75;;;16.40;99.10;;;;;;5529641;25;20012;-74
2024/04/12 05:24:35;;;;;;;53.72;6.75;;;16.40;99.10;;;;;;5549575;25;20009;-74
2024/04/12 05:27:04;;;;;;;308.52;20.45;;;16.40;99.10;;;;;;5540837;25;20014;-74
2024/04/12 05:29:31;;;;;;;102.50;8.20;;;16.40;99.10;;;;;;5550928;25;20075;-74
2024/04/12 05:31:58;;;;;;;189.05;7.85;;;16.40;99.10;;;;;;5549852;25;20001;-74
2024/04/12 05:34:26;;;;;;;150.63;9.95;;;16.40;99.10;;;;;;5541636;25;20060;-74
2024/04/12 05:37:00;;;;;;;355.50;24.00;;;16.40;99.10;;;;;;5541643;25;19997;-74
2024/04/12 05:39:26;;;;;;;210.52;14.50;;;16.40;99.20;;;;;;5541176;25;20007;-75
2024/04/12 05:41:53;;;;;;;191.50;15.85;;;16.40;99.20;;;;;;5538444;25;20000;-75
2024/04/12 05:44:22;;;;;;;55.47;8.07;;;16.40;99.20;;;;;;5539427;25;20089;-73
2024/04/12 05:46:48;;;;;;;179.98;15.52;;;16.40;99.30;;;;;;5545315;25;20011;-74
2024/04/12 05:49:15;;;;;;;91.45;14.65;;;16.40;99.30;;;;;;5549636;25;20001;-74
2024/04/12 05:51:41;;;;;;;173.77;9.55;;;16.30;99.40;;;;;;5542133;25;20000;-74
2024/04/12 05:54:15;;;;;;;248.35;33.83;;;16.30;99.40;;;;;;5536346;25;20013;-74
2024/04/12 05:56:44;;;;;;;93.78;9.90;;;16.40;99.40;;;;;;5552561;25;20347;-74
2024/04/12 05:59:12;;;;;;;247.43;15.95;;;16.40;99.40;;;;;;5555379;25;20020;-74
2024/04/12 06:01:43;;;;;;;432.80;26.05;;;16.30;99.40;;;;;;5517419;25;20475;-74
2024/04/12 06:04:10;;;;;;;77.47;10.38;;;16.40;99.50;;;;;;5520809;25;19997;-74
2024/04/12 06:06:41;;;;;;;329.02;12.90;;;16.40;99.50;;;;;;5514515;25;19993;-75
2024/04/12 06:09:06;;;;;;;163.38;13.88;;;16.30;99.50;;;;;;5513051;25;20002;-74
2024/04/12 06:11:34;;;;;;;125.60;8.80;;;16.40;99.50;;;;;;5515577;25;20072;-74
2024/04/12 06:14:02;;;;;;;216.10;11.27;;;16.30;99.50;;;;;;5510988;25;20716;-74
2024/04/12 06:16:28;;;;;;;324.73;19.27;;;16.40;99.60;;;;;;5534127;25;19996;-74
2024/04/12 06:18:58;;;;;;;44.63;9.35;;;16.40;99.60;;;;;;5521252;25;19997;-74
2024/04/12 06:21:23;;;;;;;214.15;14.07;;;16.40;99.50;;;;;;5535737;25;20068;-74
2024/04/12 06:23:54;;;;;;;182.80;12.18;;;16.40;99.60;;;;;;5533820;25;20001;-74
2024/04/12 06:26:22;;;;;;;56.63;6.15;;;16.40;99.50;;;;;;5522210;25;20009;-74
2024/04/12 06:28:49;;;;;;;19.98;6.43;;;16.50;99.60;;;;;;5540153;25;20415;-74
2024/04/12 06:31:19;;;;;;;145.98;8.98;;;16.40;99.50;;;;;;5531498;25;20124;-74
2024/04/12 06:33:46;;;;;;;88.75;7.70;;;16.40;99.60;;;;;;5536483;25;20001;-74
2024/04/12 06:36:13;;;;;;;124.28;6.57;;;16.40;99.60;;;;;;5519796;25;20009;-74
2024/04/12 06:38:39;;;;;;;106.68;8.30;;;16.40;99.60;;;;;;5529751;25;20000;-74
2024/04/12 06:41:10;;;;;;;416.58;18.42;;;16.40;99.60;;;;;;5521139;25;20038;-74
2024/04/12 06:43:42;;;;;;;125.05;8.75;;;16.40;99.70;;;;;;5554725;25;20013;-74
2024/04/12 06:46:08;;;;;;;164.95;20.73;;;16.50;99.70;;;;;;5552851;25;20460;-74
2024/04/12 06:48:36;;;;;;;146.48;9.85;;;16.40;99.70;;;;;;5552971;25;20008;-74
2024/04/12 06:51:05;;;;;;;646.63;29.15;;;16.40;99.70;;;;;;5553039;25;20000;-74
2024/04/12 06:53:34;;;;;;;312.58;15.32;;;16.40;99.80;;;;;;5539830;25;20008;-74
2024/04/12 06:56:11;;;;;;;135.63;13.02;;;16.40;99.90;;;;;;5529413;25;20008;-74
2024/04/12 06:58:38;;;;;;;134.57;8.82;;;16.40;99.90;;;;;;5535735;25;20452;-74
2024/04/12 07:01:05;;;;;;;14.63;6.88;;;16.30;99.90;;;;;;5541413;25;19997;-74
2024/04/12 07:03:34;;;;;;;98.72;13.15;;;16.40;99.90;;;;;;5524511;25;20448;-74
2024/04/12 07:06:01;;;;;;;15.80;8.18;;;16.40;99.90;;;;;;5519877;25;19997;-74
2024/04/12 07:08:27;;;;;;;18.20;8.05;;;16.40;99.90;;;;;;5522493;25;20005;-74
2024/04/12 07:10:56;;;;;;;126.75;9.93;;;16.30;99.90;;;;;;5520103;25;20016;-75
2024/04/12 07:13:26;;;;;;;152.57;16.35;;;16.40;99.90;;;;;;5521309;25;20002;-76
2024/04/12 07:15:55;;;;;;;188.77;12.30;;;16.40;99.90;;;;;;5530894;25;20371;-73
2024/04/12 07:18:22;;;;;;;367.60;42.95;;;16.40;99.90;;;;;;5555256;25;20030;-73
2024/04/12 07:20:48;;;;;;;74.50;12.27;;;16.40;99.90;;;;;;5545218;25;20463;-73
2024/04/12 07:23:17;;;;;;;31.42;10.68;;;16.40;99.90;;;;;;5521818;25;20340;-74
2024/04/12 07:25:45;;;;;;;381.52;15.40;;;16.40;99.90;;;;;;5548999;25;19997;-73
2024/04/12 07:28:14;;;;;;;335.77;16.50;;;16.40;99.90;;;;;;5552444;25;20015;-73
2024/04/12 07:30:47;;;;;;;83.70;10.60;;;16.40;99.90;;;;;;5523185;25;20460;-74
2024/04/12 07:33:13;;;;;;;119.35;9.40;;;16.40;99.90;;;;;;5542503;25;20491;-73
2024/04/12 07:35:40;;;;;;;315.65;17.73;;;16.50;99.90;;;;;;5521579;25;20016;-73
2024/04/12 07:38:07;;;;;;;221.05;14.23;;;16.50;99.90;;;;;;5517697;25;20001;-73
2024/04/12 07:40:34;;;;;;;195.35;20.88;;;16.50;99.90;;;;;;5539514;25;20011;-74
2024/04/12 07:43:08;;;;;;;305.52;32.70;;;16.50;99.90;;;;;;5545352;25;20360;-73
2024/04/12 07:45:37;;;;;;;110.40;9.70;;;16.50;99.90;;;;;;5538573;25;20011;-73
2024/04/12 07:48:23;;;;;;;254.30;12.40;;;16.60;99.90;;;;;;5522646;25;20472;-73
2024/04/12 07:50:55;;;;;;;101.80;16.60;;;16.60;99.90;;;;;;5540976;25;20527;-73
2024/04/12 07:53:21;;;;;;;238.73;16.77;;;16.60;99.90;;;;;;5520938;25;20077;-73
2024/04/12 07:56:09;;;;;;;315.77;31.40;;;16.70;99.90;;;;;;5540741;25;20001;-73
2024/04/12 07:58:35;;;;;;;111.03;10.15;;;16.70;99.90;;;;;;5526682;25;20033;-73
2024/04/12 08:01:18;;;;;;;13.02;6.15;;;16.70;99.90;;;;;;5543227;25;20012;-73
2024/04/12 08:03:56;;;;;;;191.52;17.60;;;16.70;99.90;;;;;;5527176;25;20001;-73
2024/04/12 08:06:55;;;;;;;54.42;6.88;;;16.70;99.90;;;;;;5520241;25;19997;-73
2024/04/12 08:09:22;;;;;;;10.20;4.50;;;16.80;99.90;;;;;;5544973;25;20074;-73
2024/04/12 08:11:51;;;;;;;151.68;22.13;;;16.80;99.90;;;;;;5538902;25;20018;-73
2024/04/12 08:14:22;;;;;;;99.18;6.88;;;16.80;99.90;;;;;;5528984;25;20347;-73
2024/04/12 08:16:52;;;;;;;102.25;9.73;;;16.80;99.90;;;;;;5542084;25;20072;-74
2024/04/12 08:22:03;;;;;;;151.30;12.18;;;16.90;99.90;;;;;;5519162;25;20012;-73
2024/04/12 08:24:29;;;;;;;203.13;53.90;;;16.90;99.90;;;;;;5543561;25;20728;-73
2024/04/12 08:26:57;;;;;;;225.05;12.68;;;16.90;99.90;;;;;;5541715;25;19997;-73
2024/04/12 08:29:23;;;;;;;277.50;9.32;;;16.90;99.90;;;;;;5551584;25;19996;-73
2024/04/12 08:34:42;;;;;;;147.98;15.23;;;17.00;99.30;;;;;;5538337;25;20013;-73
2024/04/12 08:37:16;;;;;;;183.57;9.70;;;17.00;99.30;;;;;;5518996;25;20069;-73
2024/04/12 08:39:44;;;;;;;87.20;8.07;;;17.00;99.40;;;;;;5518635;25;20637;-73
2024/04/12 08:42:14;;;;;;;365.05;20.15;;;17.10;99.00;;;;;;5537882;25;20456;-73
2024/04/12 08:44:41;;;;;;;95.85;6.75;;;17.10;98.70;;;;;;5519647;25;20852;-74
2024/04/12 08:47:16;;;;;;;22.40;4.20;;;17.10;98.40;;;;;;5519733;25;20500;-74
2024/04/12 08:49:48;;;;;;;235.82;12.73;;;17.10;98.50;;;;;;5528779;25;20049;-72
2024/04/12 08:52:30;;;;;;;4.60;2.67;;;17.00;97.90;;;;;;5532665;25;20005;-72
2024/04/12 08:54:59;;;;;;;59.88;5.30;;;17.10;97.50;;;;;;5552447;25;20001;-74
2024/04/12 08:57:26;;;;;;;104.82;12.07;;;17.10;97.40;;;;;;5555083;25;20011;-73
2024/04/12 08:59:52;;;;;;;101.95;5.38;;;17.10;97.10;;;;;;5539160;25;20004;-73
2024/04/12 09:02:23;;;;;;;161.95;10.25;;;17.20;97.10;;;;;;5518090;25;20016;-73
2024/04/12 09:04:49;;;;;;;95.63;4.95;;;17.10;97.00;;;;;;5523674;25;20013;-72
2024/04/12 09:07:14;;;;;;;6.63;3.92;;;17.20;97.10;;;;;;5536560;25;20028;-73
2024/04/12 09:09:52;;;;;;;5.28;3.08;;;17.20;96.60;;;;;;5541062;25;20008;-73
2024/04/12 09:12:19;;;;;;;375.95;11.10;;;17.20;96.10;;;;;;5544097;25;20000;-72
2024/04/12 09:14:46;;;;;;;259.33;14.77;;;17.20;96.00;;;;;;5516379;25;20080;-72
2024/04/12 09:17:14;;;;;;;137.63;19.63;;;17.30;96.00;;;;;;5542980;25;20005;-73
2024/04/12 09:19:40;;;;;;;553.97;50.63;;;17.30;96.00;;;;;;5549724;25;20059;-72
2024/04/12 09:22:09;;;;;;;17.05;3.40;;;17.30;96.00;;;;;;5535163;25;20005;-72
2024/04/12 09:24:39;;;;;;;235.52;6.85;;;17.40;95.80;;;;;;5538668;25;19993;-72
2024/04/12 09:27:09;;;;;;;122.88;4.05;;;17.40;95.10;;;;;;5518427;25;20486;-72
2024/04/12 09:29:45;;;;;;;215.75;10.18;;;17.40;94.60;;;;;;5547766;25;19993;-72
2024/04/12 09:34:56;;;;;;;3.28;2.15;;;17.40;94.10;;;;;;5544151;25;20512;-72
2024/04/12 09:37:29;;;;;;;114.35;3.80;;;17.30;93.80;;;;;;5521806;25;20016;-72
2024/04/12 09:42:44;;;;;;;6.15;2.63;;;17.40;93.60;;;;;;5536513;25;20089;-72
2024/04/12 09:45:19;;;;;;;3.65;2.22;;;17.40;93.80;;;;;;5538014;25;20008;-72
2024/04/12 10:38:02;;;;;;;53.88;3.92;;;17.90;92.20;;;;;;5556716;25;20012;-72
2024/04/12 10:40:30;;;;;;;133.48;4.93;;;18.00;92.30;;;;;;5532694;25;20026;-72
2024/04/12 10:42:57;;;;;;;101.50;4.70;;;18.00;91.90;;;;;;5542630;25;20074;-72
2024/04/12 10:45:25;;;;;;;34.45;3.80;;;18.10;92.30;;;;;;5532188;25;19998;-73
2024/04/12 10:47:54;;;;;;;122.47;5.55;;;18.10;91.70;;;;;;5543008;25;20037;-73
2024/04/12 10:50:23;;;;;;;382.42;8.35;;;18.10;91.70;;;;;;5553930;25;20476;-73
2024/04/12 10:52:49;;;;;;;95.78;4.03;;;18.20;91.60;;;;;;5542912;25;20089;-72
2024/04/12 10:55:19;;;;;;;34.58;3.03;;;18.20;91.70;;;;;;5549379;25;20011;-71
2024/04/12 10:57:48;;;;;;;353.00;8.30;;;18.20;91.90;;;;;;5545836;25;20011;-72
2024/04/12 11:00:27;;;;;;;69.82;3.08;;;18.30;91.40;;;;;;5542918;25;20106;-73
2024/04/12 11:02:59;;;;;;;59.72;3.60;;;18.20;91.20;;;;;;5529630;25;19996;-72
2024/04/12 11:05:38;;;;;;;106.45;3.90;;;18.30;90.70;;;;;;5548938;25;20008;-72
2024/04/12 11:08:08;;;;;;;361.80;8.55;;;18.20;90.50;;;;;;5525825;25;20076;-73
2024/04/12 11:10:40;;;;;;;198.43;5.05;;;18.20;90.30;;;;;;5532287;25;20511;-73
2024/04/12 11:13:08;;;;;;;149.60;4.60;;;18.20;90.10;;;;;;5530083;25;19997;-74
2024/04/12 11:32:05;;;;;;;18.35;3.67;;;18.40;90.80;;;;;;5534894;25;20254;-72
2024/04/12 11:34:33;;;;;;;246.43;11.80;;;18.50;91.00;;;;;;5545583;25;19996;-72
2024/04/12 11:37:06;;;;;;;119.53;5.82;;;18.50;90.80;;;;;;5532911;25;20009;-72
2024/04/12 11:39:37;;;;;;;196.10;6.20;;;18.50;90.30;;;;;;5545351;25;20076;-73
2024/04/12 11:42:05;;;;;;;110.63;6.30;;;18.50;90.50;;;;;;5543481;25;19993;-73
2024/04/12 11:44:33;;;;;;;140.85;6.20;;;18.50;90.50;;;;;;5535912;25;20019;-76
2024/04/12 11:47:02;;;;;;;253.13;7.57;;;18.50;90.50;;;;;;5537714;25;20011;-72
2024/04/12 11:49:41;;;;;;;126.15;4.03;;;18.50;90.40;;;;;;5549756;25;19997;-73
2024/04/12 11:52:16;;;;;;;11.38;2.85;;;18.50;90.40;;;;;;5533852;25;20004;-75
2024/04/12 11:54:42;;;;;;;196.20;5.93;;;18.60;90.90;;;;;;5550922;25;20397;-74
2024/04/12 11:57:11;;;;;;;7.07;2.70;;;18.60;90.80;;;;;;5544432;25;20550;-72
2024/04/12 11:59:37;;;;;;;270.92;7.72;;;18.70;90.30;;;;;;5532809;25;20442;-72
2024/04/12 12:02:05;;;;;;;245.02;8.90;;;18.70;90.70;;;;;;5519269;25;20001;-72
2024/04/12 12:04:32;;;;;;;134.57;5.53;;;18.70;90.60;;;;;;5520467;25;20334;-72
2024/04/12 12:06:59;;;;;;;188.65;8.10;;;18.70;90.40;;;;;;5519472;25;19997;-72
2024/04/12 12:09:38;;;;;;;34.35;3.25;;;18.80;90.40;;;;;;5517655;25;20094;-72
2024/04/12 12:12:10;;;;;;;379.33;11.43;;;18.90;90.40;;;;;;5517784;25;20329;-72
2024/04/12 12:14:42;;;;;;;308.15;8.30;;;18.90;90.50;;;;;;5533271;25;20004;-72
2024/04/12 12:17:09;;;;;;;9.10;3.10;;;18.90;89.90;;;;;;5540886;25;20112;-73
2024/04/12 12:19:35;;;;;;;271.25;7.90;;;19.00;90.40;;;;;;5543379;25;20393;-72
2024/04/12 12:22:02;;;;;;;115.80;4.65;;;19.00;90.50;;;;;;5528099;25;20555;-72
2024/04/12 12:24:37;;;;;;;396.80;9.68;;;19.00;90.40;;;;;;5513090;25;20002;-72
2024/04/12 12:27:08;;;;;;;636.10;16.15;;;19.00;89.50;;;;;;5538981;25;20036;-72
2024/04/12 12:29:35;;;;;;;551.60;9.63;;;19.10;90.20;;;;;;5518614;25;20001;-72
2024/04/12 12:32:01;;;;;;;92.88;5.03;;;19.10;89.50;;;;;;5523414;25;20009;-72
2024/04/12 12:34:27;;;;;;;697.25;17.83;;;19.20;90.10;;;;;;5556497;25;20004;-72
2024/04/12 12:36:59;;;;;;;167.15;7.55;;;19.20;90.10;;;;;;5554277;25;20080;-72
2024/04/12 12:39:30;;;;;;;76.28;3.88;;;19.20;90.30;;;;;;5529951;25;20076;-72
2024/04/12 12:42:16;;;;;;;10.65;3.92;;;19.30;90.70;;;;;;5529052;25;20444;-72
2024/04/12 12:44:43;;;;;;;274.80;16.05;;;19.30;90.50;;;;;;5526384;25;20002;-72
2024/04/12 12:47:10;;;;;;;86.43;6.13;;;19.40;90.20;;;;;;5540933;25;20001;-72
2024/04/12 12:49:46;;;;;;;343.38;9.15;;;19.40;90.10;;;;;;5524203;25;19997;-73
2024/04/12 12:52:12;;;;;;;52.58;5.88;;;19.40;90.30;;;;;;5536143;25;20016;-73
2024/04/12 12:54:42;;;;;;;119.63;10.45;;;19.50;90.60;;;;;;5519833;25;20006;-73
2024/04/12 12:57:13;;;;;;;113.35;5.43;;;19.50;90.30;;;;;;5535986;25;19997;-72
2024/04/12 12:59:43;;;;;;;91.97;4.35;;;19.50;90.30;;;;;;5518398;25;20002;-72
2024/04/12 13:02:15;;;;;;;11.65;2.40;;;19.50;89.30;;;;;;5519419;25;19997;-72
2024/04/12 13:04:46;;;;;;;78.43;8.23;;;19.60;90.00;;;;;;5539669;25;19997;-72
2024/04/12 13:07:15;;;;;;;20.02;3.38;;;19.50;89.30;;;;;;5523483;25;19998;-72
2024/04/12 13:09:42;;;;;;;23.10;2.80;;;19.50;89.50;;;;;;5542053;25;20014;-72
2024/04/12 13:12:09;;;;;;;170.98;4.85;;;19.60;90.00;;;;;;5517613;25;20013;-72
2024/04/12 13:14:44;;;;;;;255.38;8.95;;;19.60;90.30;;;;;;5520452;25;20005;-72
2024/04/12 13:17:13;;;;;;;145.10;4.45;;;19.70;90.20;;;;;;5523792;25;20692;-72
2024/04/12 13:19:41;;;;;;;55.72;4.78;;;19.70;88.50;;;;;;5549072;25;19996;-73
2024/04/12 13:22:08;;;;;;;282.48;6.50;;;19.70;88.10;;;;;;5555345;25;20019;-73
2024/04/12 13:24:35;;;;;;;126.32;6.78;;;19.80;87.50;;;;;;5525778;25;20000;-72
2024/04/12 13:27:00;;;;;;;101.30;11.95;;;19.70;87.50;;;;;;5533422;25;20412;-73
2024/04/12 13:29:30;;;;;;;70.13;3.17;;;19.80;87.70;;;;;;5519261;25;19997;-72
2024/04/12 13:31:57;;;;;;;269.63;18.13;;;19.80;87.50;;;;;;5521768;25;20001;-73
2024/04/12 13:34:23;;;;;;;124.43;6.72;;;19.80;90.00;;;;;;5521597;25;20084;-73
2024/04/12 13:36:52;;;;;;;88.72;4.88;;;19.90;90.10;;;;;;5519745;25;19997;-72
2024/04/12 13:39:19;;;;;;;151.63;10.70;;;20.00;90.20;;;;;;5546673;25;19997;-72
2024/04/12 13:41:45;;;;;;;182.02;8.57;;;20.00;90.20;;;;;;5545912;25;19996;-72
2024/04/12 13:44:24;;;;;;;103.03;5.50;;;20.10;89.90;;;;;;5543868;25;20083;-72
2024/04/12 13:52:23;;;;;;;298.23;35.40;;;20.20;90.20;;;;;;5535669;25;20012;-73
2024/04/12 13:54:51;;;;;;;10.23;2.63;;;20.20;90.60;;;;;;5531345;25;20073;-72
2024/04/12 13:57:17;;;;;;;332.15;16.80;;;20.30;90.20;;;;;;5530356;25;19998;-73
2024/04/12 13:59:44;;;;;;;253.63;7.60;;;20.30;90.30;;;;;;5532550;25;20112;-72
2024/04/12 14:02:10;;;;;;;22.50;3.60;;;20.30;90.20;;;;;;5533919;25;20013;-73